createdAt,value
2022-12-15T00:00:52.014Z,43.83
2022-12-15T00:03:12.663Z,45.85
2022-12-15T00:05:33.461Z,48.58
2022-12-15T00:07:54.188Z,46.75
2022-12-15T00:10:16.006Z,42.95
2022-12-15T00:12:36.928Z,45.40
2022-12-15T00:14:57.565Z,42.10
2022-12-15T00:17:18.345Z,50.97
2022-12-15T00:19:38.741Z,43.15
2022-12-15T00:21:59.548Z,44.05
2022-12-15T00:24:20.090Z,43.35
2022-12-15T00:26:42.121Z,43.58
2022-12-15T00:29:02.924Z,46.17
2022-12-15T00:31:23.874Z,41.67
2022-12-15T00:33:44.581Z,45.38
2022-12-15T00:36:17.415Z,42.63
2022-12-15T00:38:37.981Z,48.70
2022-12-15T00:40:41.000Z,41.92
2022-12-15T00:42:45.286Z,46.25
2022-12-15T00:44:52.804Z,45.50
2022-12-15T00:46:54.906Z,44.40
2022-12-15T00:48:58.381Z,49.10
2022-12-15T00:51:00.306Z,42.97
2022-12-15T00:53:20.596Z,44.85
2022-12-15T00:55:43.915Z,44.55
2022-12-15T00:58:07.902Z,42.90
2022-12-15T01:00:29.644Z,42.90
2022-12-15T01:02:50.721Z,47.17
2022-12-15T01:05:11.471Z,45.75
2022-12-15T01:07:31.843Z,45.22
2022-12-15T01:09:52.526Z,50.85
2022-12-15T01:12:13.429Z,46.70
2022-12-15T01:14:35.345Z,45.17
2022-12-15T01:16:56.041Z,46.53
2022-12-15T01:19:16.748Z,43.80
2022-12-15T01:21:24.081Z,46.65
2022-12-15T01:23:28.576Z,46.90
2022-12-15T01:25:31.847Z,47.25
2022-12-15T01:27:35.030Z,42.70
2022-12-15T01:29:39.462Z,41.63
2022-12-15T01:31:43.999Z,43.38
2022-12-15T01:33:47.314Z,47.95
2022-12-15T01:35:57.147Z,45.30
2022-12-15T01:38:00.168Z,43.45
2022-12-15T01:40:20.847Z,43.97
2022-12-15T01:42:24.255Z,42.47
2022-12-15T01:44:27.247Z,44.53
2022-12-15T01:46:33.245Z,45.67
2022-12-15T01:48:40.341Z,43.60
2022-12-15T01:50:48.323Z,46.17
2022-12-15T01:52:51.656Z,39.30
2022-12-15T01:54:56.672Z,47.22
2022-12-15T01:57:03.554Z,43.40
2022-12-15T01:59:09.290Z,42.20
2022-12-15T02:01:12.604Z,47.30
2022-12-15T02:03:17.284Z,40.53
2022-12-15T02:05:21.828Z,44.95
2022-12-15T02:07:39.123Z,43.78
2022-12-15T02:09:43.259Z,44.63
2022-12-15T02:11:58.184Z,41.90
2022-12-15T02:14:03.433Z,44.70
2022-12-15T02:16:14.869Z,46.90
2022-12-15T02:18:23.725Z,43.13
2022-12-15T02:20:42.831Z,47.45
2022-12-15T02:23:03.529Z,45.78
2022-12-15T02:25:31.520Z,45.13
2022-12-15T02:27:46.382Z,45.60
2022-12-15T02:30:26.575Z,43.97
2022-12-15T02:32:32.998Z,41.92
2022-12-15T02:34:41.254Z,43.60
2022-12-15T02:36:46.437Z,39.10
2022-12-15T02:38:49.667Z,39.83
2022-12-15T02:40:59.159Z,43.42
2022-12-15T02:43:05.761Z,42.70
2022-12-15T02:45:11.102Z,48.00
2022-12-15T02:47:28.578Z,43.22
2022-12-15T02:49:40.652Z,47.40
2022-12-15T02:51:50.959Z,42.80
2022-12-15T02:54:14.041Z,44.15
2022-12-15T02:56:22.837Z,44.35
2022-12-15T02:58:29.358Z,44.80
2022-12-15T03:00:37.124Z,42.80
2022-12-15T03:02:43.496Z,45.50
2022-12-15T03:04:48.114Z,41.90
2022-12-15T03:07:00.787Z,46.40
2022-12-15T03:09:05.115Z,39.25
2022-12-15T03:11:08.425Z,43.45
2022-12-15T03:13:11.520Z,44.50
2022-12-15T03:15:15.086Z,43.17
2022-12-15T03:17:18.164Z,44.83
2022-12-15T03:19:21.345Z,44.83
2022-12-15T03:21:25.765Z,40.95
2022-12-15T03:23:29.490Z,44.13
2022-12-15T03:25:32.928Z,44.13
2022-12-15T03:27:37.838Z,41.47
2022-12-15T03:29:41.080Z,47.95
2022-12-15T03:31:44.352Z,41.92
2022-12-15T03:33:47.578Z,40.97
2022-12-15T03:35:51.214Z,42.30
2022-12-15T03:37:55.668Z,47.08
2022-12-15T03:39:58.716Z,46.58
2022-12-15T03:42:02.495Z,41.15
2022-12-15T03:44:05.960Z,45.95
2022-12-15T03:46:09.894Z,44.80
2022-12-15T03:48:13.080Z,41.10
2022-12-15T03:50:18.601Z,42.72
2022-12-15T03:52:22.141Z,44.03
2022-12-15T03:54:26.597Z,42.38
2022-12-15T03:56:29.642Z,43.88
2022-12-15T03:58:32.722Z,41.83
2022-12-15T04:00:35.762Z,42.55
2022-12-15T04:02:38.916Z,46.17
2022-12-15T04:04:42.078Z,47.03
2022-12-15T04:06:45.348Z,45.55
2022-12-15T04:08:49.779Z,44.38
2022-12-15T04:10:55.024Z,42.08
2022-12-15T04:12:59.520Z,40.72
2022-12-15T04:15:02.576Z,43.60
2022-12-15T04:17:05.974Z,48.85
2022-12-15T04:19:26.832Z,43.08
2022-12-15T04:21:29.974Z,45.70
2022-12-15T04:23:33.331Z,49.17
2022-12-15T04:25:55.498Z,47.40
2022-12-15T04:28:17.515Z,45.38
2022-12-15T04:30:38.197Z,43.97
2022-12-15T04:32:58.993Z,42.38
2022-12-15T04:35:19.867Z,43.80
2022-12-15T04:37:40.958Z,41.97
2022-12-15T04:40:03.745Z,39.35
2022-12-15T04:42:24.942Z,36.65
2022-12-15T04:44:49.999Z,36.47
2022-12-15T04:47:11.054Z,39.13
2022-12-15T04:49:31.758Z,41.10
2022-12-15T04:51:52.479Z,37.13
2022-12-15T04:54:13.453Z,38.15
2022-12-15T04:56:34.824Z,37.03
2022-12-15T04:58:55.220Z,42.20
2022-12-15T05:01:16.955Z,40.75
2022-12-15T05:03:38.074Z,37.60
2022-12-15T05:05:58.804Z,38.75
2022-12-15T05:08:19.290Z,44.72
2022-12-15T05:10:40.258Z,33.10
2022-12-15T05:13:00.913Z,41.17
2022-12-15T05:15:21.549Z,43.67
2022-12-15T05:17:43.792Z,37.45
2022-12-15T05:20:04.288Z,37.65
2022-12-15T05:22:25.183Z,40.97
2022-12-15T05:24:45.812Z,38.60
2022-12-15T05:27:06.292Z,37.22
2022-12-15T05:29:27.224Z,39.00
2022-12-15T05:31:52.648Z,36.83
2022-12-15T05:34:04.531Z,37.75
2022-12-15T05:36:32.497Z,37.60
2022-12-15T05:38:38.189Z,35.08
2022-12-15T05:40:41.359Z,40.20
2022-12-15T05:42:44.427Z,63.10
2022-12-15T05:44:53.704Z,38.92
2022-12-15T05:46:57.138Z,41.15
2022-12-15T05:49:03.972Z,37.42
2022-12-15T05:51:08.187Z,39.80
2022-12-15T05:53:13.962Z,38.60
2022-12-15T05:55:17.944Z,43.42
2022-12-15T05:57:21.042Z,44.47
2022-12-15T05:59:24.158Z,40.15
2022-12-15T06:01:28.064Z,34.40
2022-12-15T06:03:31.766Z,38.33
2022-12-15T06:05:36.567Z,39.35
2022-12-15T06:07:39.692Z,41.35
2022-12-15T06:09:43.603Z,39.15
2022-12-15T06:11:46.986Z,41.20
2022-12-15T06:13:50.645Z,38.65
2022-12-15T06:15:58.302Z,34.75
2022-12-15T06:18:01.644Z,39.63
2022-12-15T06:20:05.342Z,38.22
2022-12-15T06:22:11.185Z,42.90
2022-12-15T06:24:14.258Z,44.58
2022-12-15T06:26:20.495Z,38.97
2022-12-15T06:28:25.090Z,45.42
2022-12-15T06:30:28.248Z,42.25
2022-12-15T06:32:31.421Z,43.22
2022-12-15T06:34:34.594Z,42.05
2022-12-15T06:36:37.985Z,43.75
2022-12-15T06:38:43.654Z,39.60
2022-12-15T06:40:46.833Z,44.45
2022-12-15T06:42:50.012Z,41.28
2022-12-15T06:44:53.112Z,39.97
2022-12-15T06:46:56.280Z,41.40
2022-12-15T06:49:00.345Z,43.40
2022-12-15T06:51:05.410Z,42.63
2022-12-15T06:53:08.628Z,46.17
2022-12-15T06:55:14.246Z,45.95
2022-12-15T06:57:17.423Z,46.08
2022-12-15T06:59:20.711Z,44.75
2022-12-15T07:01:24.952Z,43.80
2022-12-15T07:03:28.508Z,43.75
2022-12-15T07:05:32.019Z,40.33
2022-12-15T07:07:35.261Z,41.63
2022-12-15T07:09:38.420Z,41.05
2022-12-15T07:11:51.327Z,40.92
2022-12-15T07:13:54.951Z,40.03
2022-12-15T07:16:00.644Z,40.42
2022-12-15T07:18:04.559Z,40.45
2022-12-15T07:20:08.870Z,40.08
2022-12-15T07:22:12.284Z,50.22
2022-12-15T07:24:15.549Z,38.05
2022-12-15T07:26:18.898Z,43.17
2022-12-15T07:28:25.969Z,40.05
2022-12-15T07:30:33.599Z,42.75
2022-12-15T07:32:40.199Z,40.00
2022-12-15T07:34:43.503Z,42.88
2022-12-15T07:36:52.086Z,39.65
2022-12-15T07:39:00.913Z,43.80
2022-12-15T07:41:05.690Z,39.58
2022-12-15T07:43:09.120Z,46.22
2022-12-15T07:45:14.254Z,44.58
2022-12-15T07:47:17.474Z,42.95
2022-12-15T07:49:21.665Z,40.30
2022-12-15T07:51:24.862Z,41.78
2022-12-15T07:53:29.080Z,42.42
2022-12-15T07:55:57.606Z,40.35
2022-12-15T07:57:55.979Z,44.85
2022-12-15T07:59:59.336Z,53.95
2022-12-15T08:02:04.623Z,43.17
2022-12-15T08:04:08.214Z,40.90
2022-12-15T08:06:13.446Z,35.70
2022-12-15T08:08:18.404Z,40.65
2022-12-15T08:10:21.633Z,39.80
2022-12-15T08:12:24.910Z,39.80
2022-12-15T08:14:28.790Z,38.50
2022-12-15T08:16:34.614Z,37.00
2022-12-15T08:18:40.041Z,37.63
2022-12-15T08:20:43.372Z,41.10
2022-12-15T08:22:46.798Z,40.03
2022-12-15T08:24:50.204Z,42.50
2022-12-15T08:26:53.622Z,38.92
2022-12-15T08:29:11.898Z,44.05
2022-12-15T08:31:22.488Z,40.60
2022-12-15T08:33:25.920Z,45.58
2022-12-15T08:35:55.295Z,38.30
2022-12-15T08:37:53.877Z,42.40
2022-12-15T08:39:57.255Z,40.85
2022-12-15T08:42:03.193Z,47.75
2022-12-15T08:44:06.565Z,45.22
2022-12-15T08:46:10.059Z,43.55
2022-12-15T08:48:13.326Z,59.88
2022-12-15T08:50:17.219Z,55.08
2022-12-15T08:52:21.863Z,44.38
2022-12-15T08:54:25.080Z,43.90
2022-12-15T08:56:30.336Z,50.28
2022-12-15T08:58:33.884Z,41.20
2022-12-15T09:00:37.047Z,45.35
2022-12-15T09:02:40.486Z,44.60
2022-12-15T09:04:45.325Z,42.45
2022-12-15T09:06:50.803Z,45.05
2022-12-15T09:08:57.632Z,41.50
2022-12-15T09:11:01.364Z,44.55
2022-12-15T09:13:04.583Z,42.67
2022-12-15T09:15:08.700Z,41.83
2022-12-15T09:17:12.835Z,40.55
2022-12-15T09:19:16.156Z,41.15
2022-12-15T09:21:22.432Z,37.22
2022-12-15T09:23:25.529Z,40.15
2022-12-15T09:25:30.240Z,42.47
2022-12-15T09:27:35.027Z,40.20
2022-12-15T09:29:38.268Z,36.30
2022-12-15T09:31:44.697Z,36.50
2022-12-15T09:33:48.175Z,38.03
2022-12-15T09:35:51.736Z,37.67
2022-12-15T09:37:55.004Z,39.80
2022-12-15T09:39:58.205Z,37.00
2022-12-15T09:42:02.882Z,38.80
2022-12-15T09:44:10.991Z,39.60
2022-12-15T09:46:22.143Z,42.25
2022-12-15T09:48:26.271Z,34.35
2022-12-15T09:50:36.057Z,67.32
2022-12-15T09:52:50.736Z,59.60
2022-12-15T09:54:54.782Z,37.00
2022-12-15T09:57:04.498Z,37.75
2022-12-15T09:59:20.626Z,41.00
2022-12-15T10:01:29.269Z,40.33
2022-12-15T10:03:42.271Z,41.72
2022-12-15T10:06:15.451Z,40.70
2022-12-15T10:08:20.736Z,40.33
2022-12-15T10:10:27.199Z,41.30
2022-12-15T10:12:34.382Z,40.40
2022-12-15T10:14:41.109Z,38.70
2022-12-15T10:16:52.816Z,37.75
2022-12-15T10:19:09.216Z,39.20
2022-12-15T10:21:14.767Z,46.70
2022-12-15T10:23:19.243Z,39.90
2022-12-15T10:28:04.787Z,39.33
2022-12-15T10:30:11.617Z,42.35
2022-12-15T10:32:18.851Z,35.13
2022-12-15T10:34:27.430Z,37.20
2022-12-15T10:36:30.783Z,37.30
2022-12-15T10:38:50.864Z,39.65
2022-12-15T10:41:02.417Z,38.50
2022-12-15T10:43:14.525Z,38.72
2022-12-15T10:45:36.765Z,39.85
2022-12-15T10:47:40.065Z,37.05
2022-12-15T10:49:43.393Z,37.58
2022-12-15T10:51:50.722Z,42.30
2022-12-15T10:53:55.250Z,38.40
2022-12-15T10:56:01.460Z,36.05
2022-12-15T10:58:21.597Z,34.95
2022-12-15T11:00:29.948Z,35.45
2022-12-15T11:02:36.692Z,40.10
2022-12-15T11:04:40.549Z,35.10
2022-12-15T11:06:44.097Z,35.45
2022-12-15T11:08:49.678Z,36.65
2022-12-15T11:11:45.097Z,34.88
2022-12-15T11:14:11.410Z,38.53
2022-12-15T11:16:19.950Z,37.03
2022-12-15T11:18:29.048Z,37.53
2022-12-15T11:20:36.076Z,36.20
2022-12-15T11:22:43.424Z,39.38
2022-12-15T11:25:06.355Z,39.13
2022-12-15T11:27:22.375Z,42.03
2022-12-15T11:29:30.103Z,39.05
2022-12-15T11:31:38.420Z,39.08
2022-12-15T11:33:41.582Z,40.10
2022-12-15T11:35:54.915Z,40.03
2022-12-15T11:38:01.902Z,41.58
2022-12-15T11:40:34.810Z,35.25
2022-12-15T11:42:53.713Z,42.28
2022-12-15T11:45:04.498Z,37.38
2022-12-15T11:47:14.529Z,36.17
2022-12-15T11:49:45.422Z,40.22
2022-12-15T11:51:53.168Z,38.30
2022-12-15T11:54:06.783Z,39.20
2022-12-15T11:56:18.196Z,34.38
2022-12-15T11:58:37.768Z,42.72
2022-12-15T12:00:44.625Z,35.25
2022-12-15T12:02:59.778Z,42.03
2022-12-15T12:05:22.464Z,36.08
2022-12-15T12:07:34.603Z,38.83
2022-12-15T12:09:48.592Z,36.55
2022-12-15T12:11:55.484Z,39.55
2022-12-15T12:14:26.390Z,39.78
2022-12-15T12:16:37.708Z,37.75
2022-12-15T12:18:43.689Z,39.50
2022-12-15T12:20:51.508Z,36.70
2022-12-15T12:23:03.164Z,35.67
2022-12-15T12:25:12.261Z,39.72
2022-12-15T12:27:23.725Z,41.38
2022-12-15T12:29:31.155Z,38.78
2022-12-15T12:31:42.005Z,40.08
2022-12-15T12:33:48.600Z,36.97
2022-12-15T12:35:55.169Z,39.25
2022-12-15T12:38:04.134Z,40.53
2022-12-15T12:40:17.640Z,39.95
2022-12-15T12:42:26.112Z,37.10
2022-12-15T12:44:33.410Z,38.75
2022-12-15T12:46:42.375Z,35.17
2022-12-15T12:49:14.151Z,33.25
2022-12-15T12:51:25.076Z,39.40
2022-12-15T12:53:34.042Z,34.67
2022-12-15T12:55:40.664Z,40.35
2022-12-15T12:57:44.668Z,39.30
2022-12-15T12:59:51.244Z,33.05
2022-12-15T13:01:56.253Z,34.05
2022-12-15T13:04:13.435Z,34.50
2022-12-15T13:06:43.818Z,41.00
2022-12-15T13:08:51.678Z,34.72
2022-12-15T13:10:56.169Z,33.72
2022-12-15T13:13:00.030Z,35.50
2022-12-15T13:15:07.707Z,48.33
2022-12-15T13:17:27.197Z,29.23
2022-12-15T13:20:04.273Z,36.65
2022-12-15T13:22:24.534Z,29.40
2022-12-15T13:24:33.305Z,32.60
2022-12-15T13:26:36.512Z,34.63
2022-12-15T13:28:45.898Z,33.33
2022-12-15T13:31:27.779Z,29.70
2022-12-15T13:33:31.616Z,30.58
2022-12-15T13:35:35.186Z,29.92
2022-12-15T13:37:46.725Z,35.30
2022-12-15T13:39:57.618Z,28.52
2022-12-15T13:42:35.000Z,28.23
2022-12-15T13:44:41.405Z,24.05
2022-12-15T13:46:46.866Z,25.63
2022-12-15T13:48:54.527Z,25.33
2022-12-15T13:51:03.775Z,25.02
2022-12-15T13:53:30.841Z,29.20
2022-12-15T13:55:38.820Z,29.80
2022-12-15T13:57:50.015Z,27.73
2022-12-15T13:59:54.530Z,29.00
2022-12-15T14:01:57.944Z,28.30
2022-12-15T14:04:08.074Z,25.50
2022-12-15T14:06:15.297Z,24.98
2022-12-15T14:08:19.972Z,23.38
2022-12-15T14:10:26.672Z,25.55
2022-12-15T14:12:34.790Z,29.42
2022-12-15T14:14:45.557Z,26.98
2022-12-15T14:16:59.306Z,27.33
2022-12-15T14:19:14.621Z,26.00
2022-12-15T14:21:23.027Z,25.10
2022-12-15T14:23:28.945Z,24.02
2022-12-15T14:25:32.746Z,24.42
2022-12-15T14:27:37.530Z,23.13
2022-12-15T14:29:42.057Z,27.70
2022-12-15T14:31:46.371Z,29.10
2022-12-15T14:33:54.425Z,25.38
2022-12-15T14:35:59.383Z,25.08
2022-12-15T14:38:07.508Z,27.60
2022-12-15T14:40:15.908Z,24.90
2022-12-15T14:42:20.986Z,26.70
2022-12-15T14:44:38.093Z,25.60
2022-12-15T14:46:47.086Z,25.13
2022-12-15T14:48:56.825Z,27.58
2022-12-15T14:51:01.778Z,27.23
2022-12-15T14:53:07.732Z,26.75
2022-12-15T14:55:31.966Z,29.38
2022-12-15T14:57:42.094Z,26.73
2022-12-15T14:59:49.848Z,27.40
2022-12-15T15:02:00.522Z,31.75
2022-12-15T15:03:03.980Z,43.67
2022-12-15T15:04:05.570Z,25.13
2022-12-15T15:06:18.169Z,26.02
2022-12-15T15:08:28.519Z,27.67
2022-12-15T15:10:32.229Z,27.63
2022-12-15T15:12:43.648Z,23.40
2022-12-15T15:14:55.739Z,25.77
2022-12-15T15:17:05.069Z,28.42
2022-12-15T15:19:08.511Z,28.40
2022-12-15T15:21:25.047Z,31.35
2022-12-15T15:23:28.213Z,33.28
2022-12-15T15:25:41.328Z,29.40
2022-12-15T15:27:44.755Z,29.35
2022-12-15T15:29:50.234Z,34.03
2022-12-15T15:31:54.333Z,32.03
2022-12-15T15:33:58.956Z,31.83
2022-12-15T15:36:04.373Z,32.38
2022-12-15T15:38:23.140Z,34.13
2022-12-15T15:40:26.667Z,30.40
2022-12-15T15:42:32.650Z,30.30
2022-12-15T15:44:36.202Z,35.42
2022-12-15T15:46:46.613Z,32.67
2022-12-15T15:48:52.086Z,30.73
2022-12-15T15:50:55.922Z,31.73
2022-12-15T15:53:03.135Z,29.48
2022-12-15T15:55:07.416Z,28.02
2022-12-15T15:57:14.493Z,32.20
2022-12-15T15:59:21.047Z,31.30
2022-12-15T16:08:48.894Z,32.38
2022-12-15T16:10:52.618Z,26.60
2022-12-15T16:12:58.022Z,33.40
2022-12-15T16:15:01.086Z,32.80
2022-12-15T16:17:04.822Z,28.33
2022-12-15T16:19:08.029Z,31.52
2022-12-15T16:21:11.788Z,33.78
2022-12-15T16:23:16.562Z,30.02
2022-12-15T16:25:25.675Z,33.20
2022-12-15T16:27:28.933Z,30.23
2022-12-15T16:29:32.089Z,29.80
2022-12-15T16:31:41.332Z,29.05
2022-12-15T16:33:46.763Z,30.88
2022-12-15T16:35:50.945Z,35.17
2022-12-15T16:37:54.144Z,30.33
2022-12-15T16:39:57.308Z,29.00
2022-12-15T16:42:01.981Z,28.77
2022-12-15T16:44:05.926Z,28.05
2022-12-15T16:46:12.638Z,31.75
2022-12-15T16:48:16.288Z,32.20
2022-12-15T16:50:21.096Z,29.15
2022-12-15T16:52:24.419Z,32.95
2022-12-15T16:54:28.585Z,30.20
2022-12-15T16:56:31.799Z,30.50
2022-12-15T16:58:37.166Z,27.90
2022-12-15T17:00:40.366Z,30.50
2022-12-15T17:02:44.535Z,31.08
2022-12-15T17:04:47.852Z,33.03
2022-12-15T17:06:52.571Z,33.22
2022-12-15T17:08:56.418Z,33.38
2022-12-15T17:10:59.942Z,26.73
2022-12-15T17:13:06.004Z,31.00
2022-12-15T17:15:17.695Z,32.90
2022-12-15T17:17:21.276Z,29.13
2022-12-15T17:19:27.303Z,30.25
2022-12-15T17:21:31.863Z,31.83
2022-12-15T17:23:36.357Z,30.02
2022-12-15T17:28:05.587Z,29.90
2022-12-15T17:30:15.133Z,32.05
2022-12-15T17:32:18.449Z,32.88
2022-12-15T17:34:27.458Z,35.47
2022-12-15T17:36:30.595Z,30.33
2022-12-15T17:38:33.852Z,31.30
2022-12-15T17:40:37.108Z,30.52
2022-12-15T17:42:40.455Z,31.58
2022-12-15T17:44:46.727Z,31.17
2022-12-15T17:46:51.940Z,28.40
2022-12-15T17:49:00.941Z,29.08
2022-12-15T17:51:04.186Z,31.45
2022-12-15T17:53:07.675Z,31.33
2022-12-15T17:55:23.635Z,33.45
2022-12-15T17:57:27.057Z,32.25
2022-12-15T17:59:32.260Z,32.75
2022-12-15T18:01:35.514Z,36.03
2022-12-15T18:03:40.391Z,34.92
2022-12-15T18:05:43.839Z,33.75
2022-12-15T18:07:50.049Z,29.77
2022-12-15T18:09:53.573Z,39.60
2022-12-15T18:11:56.865Z,38.95
2022-12-15T18:14:00.427Z,29.30
2022-12-15T18:16:03.801Z,34.55
2022-12-15T18:18:09.590Z,29.67
2022-12-15T18:20:14.425Z,27.90
2022-12-15T18:22:21.105Z,39.33
2022-12-15T18:24:27.012Z,35.55
2022-12-15T18:26:31.544Z,38.35
2022-12-15T18:28:36.282Z,35.78
2022-12-15T18:30:39.559Z,33.63
2022-12-15T18:32:42.847Z,34.65
2022-12-15T18:34:46.738Z,32.28
2022-12-15T18:36:51.589Z,31.58
2022-12-15T18:38:54.930Z,33.85
2022-12-15T18:40:59.813Z,31.92
2022-12-15T18:43:03.029Z,43.85
2022-12-15T18:45:16.718Z,33.22
2022-12-15T18:47:21.332Z,32.47
2022-12-15T18:49:25.073Z,30.83
2022-12-15T18:51:28.999Z,31.65
2022-12-15T18:53:35.656Z,33.20
2022-12-15T18:55:39.017Z,35.25
2022-12-15T18:57:42.558Z,30.55
2022-12-15T18:59:45.727Z,34.88
2022-12-15T19:01:50.028Z,31.23
2022-12-15T19:03:53.442Z,31.55
2022-12-15T19:05:59.962Z,31.58
2022-12-15T19:08:10.027Z,31.02
2022-12-15T19:10:16.118Z,32.40
2022-12-15T19:12:19.664Z,33.67
2022-12-15T19:14:36.885Z,29.50
2022-12-15T19:16:57.743Z,29.83
2022-12-15T19:19:18.596Z,35.53
2022-12-15T19:21:41.613Z,34.00
2022-12-15T19:23:44.914Z,32.00
2022-12-15T19:25:50.706Z,34.33
2022-12-15T19:27:58.658Z,32.50
2022-12-15T19:30:02.370Z,32.25
2022-12-15T19:32:05.921Z,30.00
2022-12-15T19:34:09.301Z,33.60
2022-12-15T19:36:15.435Z,32.67
2022-12-15T19:38:33.267Z,32.80
2022-12-15T19:40:38.770Z,38.15
2022-12-15T19:42:44.434Z,32.58
2022-12-15T19:44:48.531Z,33.55
2022-12-15T19:46:52.404Z,31.35
2022-12-15T19:48:55.631Z,29.65
2022-12-15T19:50:58.846Z,31.65
2022-12-15T19:53:03.462Z,29.80
2022-12-15T19:55:08.613Z,31.83
2022-12-15T19:57:13.743Z,38.65
2022-12-15T19:59:41.385Z,30.08
2022-12-15T20:01:44.829Z,30.35
2022-12-15T20:03:49.899Z,31.25
2022-12-15T20:05:54.192Z,28.67
2022-12-15T20:07:57.442Z,31.85
2022-12-15T20:10:00.809Z,31.17
2022-12-15T20:12:04.003Z,31.63
2022-12-15T20:14:11.433Z,29.85
2022-12-15T20:16:18.847Z,29.73
2022-12-15T20:18:22.170Z,31.98
2022-12-15T20:20:27.375Z,32.20
2022-12-15T20:22:30.586Z,30.02
2022-12-15T20:24:34.348Z,29.05
2022-12-15T20:26:39.488Z,31.35
2022-12-15T20:28:43.152Z,29.48
2022-12-15T20:30:46.995Z,42.13
2022-12-15T20:32:51.647Z,31.05
2022-12-15T20:34:54.868Z,29.77
2022-12-15T20:36:58.188Z,28.92
2022-12-15T20:39:01.451Z,32.90
2022-12-15T20:41:04.799Z,31.63
2022-12-15T20:43:13.230Z,29.27
2022-12-15T20:45:17.181Z,30.65
2022-12-15T20:47:22.250Z,28.98
2022-12-15T20:49:32.061Z,30.83
2022-12-15T20:51:35.370Z,28.40
2022-12-15T20:53:39.161Z,31.95
2022-12-15T20:55:42.395Z,30.27
2022-12-15T20:57:45.689Z,30.02
2022-12-15T20:59:48.983Z,27.98
2022-12-15T21:01:52.630Z,33.95
2022-12-15T21:03:59.048Z,30.45
2022-12-15T21:06:03.776Z,30.20
2022-12-15T21:08:15.665Z,37.28
2022-12-15T21:10:20.766Z,34.70
2022-12-15T21:12:26.528Z,44.85
2022-12-15T21:14:29.791Z,33.95
2022-12-15T21:16:33.937Z,29.77
2022-12-15T21:19:18.608Z,34.40
2022-12-15T21:21:03.017Z,35.03
2022-12-15T21:23:06.404Z,33.83
2022-12-15T21:25:18.448Z,30.02
2022-12-15T21:27:22.099Z,31.33
2022-12-15T21:29:26.975Z,34.10
2022-12-15T21:31:30.244Z,31.35
2022-12-15T21:33:33.613Z,27.08
2022-12-15T21:35:37.566Z,31.33
2022-12-15T21:37:43.282Z,30.05
2022-12-15T21:39:46.468Z,28.80
2022-12-15T21:41:49.851Z,32.33
2022-12-15T21:43:54.977Z,35.35
2022-12-15T21:45:58.641Z,38.58
2022-12-15T21:48:19.095Z,29.02
2022-12-15T21:50:22.433Z,29.73
2022-12-15T21:52:26.981Z,28.77
2022-12-15T21:54:34.039Z,29.67
2022-12-15T21:56:37.193Z,31.02
2022-12-15T21:58:40.377Z,31.77
2022-12-15T22:00:45.726Z,30.33
2022-12-15T22:02:50.761Z,43.90
2022-12-15T22:04:55.067Z,39.38
2022-12-15T22:06:58.565Z,31.48
2022-12-15T22:09:01.705Z,32.58
2022-12-15T22:11:17.834Z,31.15
2022-12-15T22:13:22.731Z,31.70
2022-12-15T22:15:26.350Z,32.58
2022-12-15T22:17:29.731Z,33.53
2022-12-15T22:19:32.977Z,32.85
2022-12-15T22:21:36.173Z,48.15
2022-12-15T22:23:39.330Z,33.13
2022-12-15T22:25:42.851Z,31.15
2022-12-15T22:27:47.585Z,35.35
2022-12-15T22:29:51.044Z,30.40
2022-12-15T22:31:55.016Z,33.33
2022-12-15T22:33:58.356Z,31.63
2022-12-15T22:36:01.564Z,32.42
2022-12-15T22:38:04.697Z,36.10
2022-12-15T22:40:08.962Z,28.52
2022-12-15T22:42:16.060Z,37.80
2022-12-15T22:44:23.186Z,36.70
2022-12-15T22:46:26.388Z,35.42
2022-12-15T22:48:34.439Z,38.72
2022-12-15T22:50:37.703Z,38.78
2022-12-15T22:52:40.842Z,43.28
2022-12-15T22:54:45.907Z,34.85
2022-12-15T22:56:51.995Z,34.08
2022-12-15T22:58:58.590Z,32.15
2022-12-15T23:01:03.532Z,40.30
2022-12-15T23:03:09.166Z,39.08
2022-12-15T23:05:15.182Z,38.53
2022-12-15T23:07:19.860Z,36.00
2022-12-15T23:09:23.033Z,37.95
2022-12-15T23:11:37.093Z,35.33
2022-12-15T23:13:40.255Z,36.30
2022-12-15T23:16:01.561Z,33.30
2022-12-15T23:18:06.375Z,31.33
2022-12-15T23:20:10.817Z,35.63
2022-12-15T23:22:14.649Z,38.28
2022-12-15T23:24:17.901Z,40.17
2022-12-15T23:26:23.309Z,35.97
2022-12-15T23:28:27.698Z,36.80
2022-12-15T23:30:31.171Z,36.75
2022-12-15T23:32:34.538Z,33.65
2022-12-15T23:34:39.250Z,32.15
2022-12-15T23:36:42.532Z,36.67
2022-12-15T23:38:46.361Z,37.17
2022-12-15T23:40:52.692Z,35.25
2022-12-15T23:42:56.215Z,32.53
2022-12-15T23:44:59.494Z,33.90
2022-12-15T23:47:02.756Z,27.38
2022-12-15T23:49:06.711Z,33.17
2022-12-15T23:51:16.204Z,30.58
2022-12-15T23:53:19.385Z,34.40
2022-12-15T23:55:22.544Z,30.92
2022-12-15T23:57:25.791Z,34.58
2022-12-15T23:59:29.191Z,34.83
